createdAt,value
2019-02-24T00:00:39.273Z,40.67
2019-02-24T00:03:27.196Z,40.48
2019-02-24T00:06:15.000Z,40.78
2019-02-24T00:09:03.563Z,40.46
2019-02-24T00:11:51.613Z,40.47
2019-02-24T00:14:39.202Z,40.43
2019-02-24T00:17:26.783Z,40.55
2019-02-24T00:20:14.608Z,40.70
2019-02-24T00:23:02.759Z,40.49
2019-02-24T00:25:51.005Z,40.34
2019-02-24T00:28:39.123Z,40.92
2019-02-24T00:31:27.112Z,41.02
2019-02-24T00:34:14.958Z,40.93
2019-02-24T00:37:03.104Z,40.56
2019-02-24T00:39:50.970Z,40.78
2019-02-24T00:42:39.026Z,40.11
2019-02-24T00:45:26.668Z,40.32
2019-02-24T00:48:15.009Z,41.03
2019-02-24T00:51:03.081Z,40.72
2019-02-24T00:53:51.007Z,40.79
2019-02-24T00:56:39.311Z,40.72
2019-02-24T00:59:27.336Z,41.18
2019-02-24T01:02:15.543Z,41.30
2019-02-24T01:05:03.506Z,40.88
2019-02-24T01:07:51.686Z,40.89
2019-02-24T01:10:39.853Z,41.16
2019-02-24T01:13:27.934Z,41.60
2019-02-24T01:16:16.166Z,41.29
2019-02-24T01:19:04.022Z,41.22
2019-02-24T01:21:51.693Z,41.30
2019-02-24T01:24:39.782Z,41.62
2019-02-24T01:27:28.003Z,42.31
2019-02-24T01:30:16.181Z,42.00
2019-02-24T01:33:04.117Z,42.21
2019-02-24T01:35:52.106Z,42.42
2019-02-24T01:38:39.802Z,42.38
2019-02-24T01:41:27.674Z,42.82
2019-02-24T01:44:15.738Z,42.59
2019-02-24T01:47:03.898Z,42.97
2019-02-24T01:49:51.714Z,42.62
2019-02-24T01:52:39.829Z,42.66
2019-02-24T01:55:28.021Z,42.68
2019-02-24T01:58:16.446Z,43.19
2019-02-24T02:01:04.709Z,43.23
2019-02-24T02:03:52.587Z,43.17
2019-02-24T02:06:40.609Z,43.12
2019-02-24T02:09:28.965Z,43.07
2019-02-24T02:12:17.082Z,43.28
2019-02-24T02:15:05.567Z,43.37
2019-02-24T02:17:53.684Z,43.88
2019-02-24T02:20:41.893Z,43.59
2019-02-24T02:23:30.029Z,43.80
2019-02-24T02:26:18.176Z,43.80
2019-02-24T02:29:06.217Z,43.78
2019-02-24T02:31:54.485Z,44.10
2019-02-24T02:34:42.632Z,44.18
2019-02-24T02:37:30.818Z,44.08
2019-02-24T02:40:18.981Z,43.86
2019-02-24T02:43:06.960Z,43.98
2019-02-24T02:45:55.281Z,44.06
2019-02-24T02:48:42.882Z,44.11
2019-02-24T02:51:30.937Z,44.26
2019-02-24T02:54:19.054Z,44.16
2019-02-24T02:57:06.708Z,44.19
2019-02-24T02:59:54.217Z,44.26
2019-02-24T03:02:42.546Z,44.06
2019-02-24T03:05:30.248Z,44.51
2019-02-24T03:08:18.185Z,44.56
2019-02-24T03:11:06.212Z,44.45
2019-02-24T03:13:54.158Z,44.58
2019-02-24T03:16:42.011Z,44.82
2019-02-24T03:19:30.107Z,44.91
2019-02-24T03:22:17.928Z,44.64
2019-02-24T03:25:05.947Z,44.82
2019-02-24T03:27:54.039Z,44.39
2019-02-24T03:30:42.441Z,44.42
2019-02-24T03:33:30.585Z,44.60
2019-02-24T03:36:18.493Z,44.69
2019-02-24T03:39:07.393Z,44.72
2019-02-24T03:41:55.483Z,44.75
2019-02-24T03:44:43.585Z,44.67
2019-02-24T03:47:31.471Z,44.75
2019-02-24T03:50:19.305Z,44.85
2019-02-24T03:53:07.321Z,44.86
2019-02-24T03:55:57.536Z,44.99
2019-02-24T03:58:45.195Z,45.03
2019-02-24T04:01:33.392Z,45.28
2019-02-24T04:04:21.776Z,45.31
2019-02-24T04:07:09.854Z,45.76
2019-02-24T04:09:57.604Z,45.54
2019-02-24T04:12:45.673Z,45.28
2019-02-24T04:15:33.629Z,45.02
2019-02-24T04:18:21.650Z,45.26
2019-02-24T04:21:09.584Z,45.33
2019-02-24T04:23:57.717Z,45.41
2019-02-24T04:26:45.315Z,45.32
2019-02-24T04:29:33.379Z,45.18
2019-02-24T04:32:21.283Z,45.28
2019-02-24T04:35:09.331Z,45.36
2019-02-24T04:37:57.686Z,45.37
2019-02-24T04:40:46.054Z,45.34
2019-02-24T04:43:34.177Z,45.67
2019-02-24T04:46:21.717Z,45.58
2019-02-24T04:49:09.345Z,45.16
2019-02-24T04:51:57.387Z,45.08
2019-02-24T04:54:45.611Z,45.39
2019-02-24T04:57:33.463Z,45.38
2019-02-24T05:00:21.742Z,45.50
2019-02-24T05:03:10.028Z,45.27
2019-02-24T05:05:57.940Z,45.99
2019-02-24T05:08:46.021Z,46.03
2019-02-24T05:11:34.250Z,45.62
2019-02-24T05:14:22.369Z,45.83
2019-02-24T05:17:10.826Z,45.86
2019-02-24T05:19:58.870Z,45.65
2019-02-24T05:22:47.116Z,45.49
2019-02-24T05:25:35.019Z,45.53
2019-02-24T05:28:23.227Z,45.51
2019-02-24T05:31:11.345Z,45.81
2019-02-24T05:33:59.670Z,45.34
2019-02-24T05:36:47.854Z,45.53
2019-02-24T05:39:36.122Z,45.72
2019-02-24T05:42:23.976Z,45.61
2019-02-24T05:45:12.152Z,45.57
2019-02-24T05:48:00.468Z,45.52
2019-02-24T05:50:49.017Z,45.69
2019-02-24T05:53:37.170Z,45.33
2019-02-24T05:56:25.013Z,45.52
2019-02-24T05:59:12.868Z,45.65
2019-02-24T06:02:01.591Z,45.33
2019-02-24T06:04:49.715Z,45.52
2019-02-24T06:07:37.688Z,45.30
2019-02-24T06:10:25.559Z,45.40
2019-02-24T06:13:13.903Z,45.42
2019-02-24T06:16:01.789Z,45.35
2019-02-24T06:18:49.856Z,45.21
2019-02-24T06:21:38.014Z,46.35
2019-02-24T06:24:26.345Z,45.51
2019-02-24T06:27:14.485Z,44.91
2019-02-24T06:30:05.275Z,44.35
2019-02-24T06:32:51.862Z,44.67
2019-02-24T06:35:39.818Z,45.35
2019-02-24T06:38:28.103Z,45.66
2019-02-24T06:41:16.310Z,46.34
2019-02-24T06:44:04.241Z,45.82
2019-02-24T06:46:52.195Z,45.55
2019-02-24T06:49:41.039Z,45.71
2019-02-24T06:52:28.799Z,45.87
2019-02-24T06:55:16.950Z,45.88
2019-02-24T06:58:04.964Z,44.62
2019-02-24T07:00:53.294Z,43.18
2019-02-24T07:03:41.188Z,42.07
2019-02-24T07:06:28.908Z,41.94
2019-02-24T07:09:16.844Z,41.86
2019-02-24T07:12:05.150Z,42.79
2019-02-24T07:14:53.409Z,43.14
2019-02-24T07:17:41.208Z,44.27
2019-02-24T07:20:29.342Z,44.10
2019-02-24T07:23:17.808Z,44.07
2019-02-24T07:26:06.067Z,43.47
2019-02-24T07:28:54.059Z,42.42
2019-02-24T07:31:41.649Z,40.04
2019-02-24T07:34:29.534Z,37.81
2019-02-24T07:37:17.551Z,36.92
2019-02-24T07:40:06.365Z,35.64
2019-02-24T07:42:54.659Z,35.41
2019-02-24T07:45:42.717Z,35.01
2019-02-24T07:48:31.204Z,34.29
2019-02-24T07:51:19.177Z,33.96
2019-02-24T07:54:07.306Z,34.00
2019-02-24T07:56:55.701Z,33.72
2019-02-24T07:59:43.833Z,34.67
2019-02-24T08:02:32.034Z,34.33
2019-02-24T08:05:20.036Z,33.87
2019-02-24T08:08:16.292Z,33.85
2019-02-24T08:10:58.507Z,34.44
2019-02-24T08:13:46.662Z,34.33
2019-02-24T08:16:34.828Z,34.77
2019-02-24T08:19:22.987Z,35.11
2019-02-24T08:22:10.968Z,34.91
2019-02-24T08:24:59.299Z,34.59
2019-02-24T08:27:47.203Z,34.70
2019-02-24T08:30:41.713Z,34.74
2019-02-24T08:33:24.940Z,34.68
2019-02-24T08:36:13.205Z,35.25
2019-02-24T08:39:01.719Z,35.43
2019-02-24T08:41:49.714Z,35.22
2019-02-24T08:44:37.716Z,34.91
2019-02-24T08:47:25.575Z,34.53
2019-02-24T08:50:14.045Z,34.43
2019-02-24T08:53:02.063Z,35.24
2019-02-24T08:55:50.003Z,35.29
2019-02-24T08:58:38.807Z,35.27
2019-02-24T09:01:27.039Z,35.75
2019-02-24T09:04:15.375Z,35.38
2019-02-24T09:07:03.806Z,35.12
2019-02-24T09:09:51.980Z,35.51
2019-02-24T09:12:39.658Z,35.61
2019-02-24T09:15:27.856Z,35.93
2019-02-24T09:18:15.798Z,35.59
2019-02-24T09:21:04.325Z,35.85
2019-02-24T09:23:52.386Z,36.83
2019-02-24T09:26:42.011Z,38.02
2019-02-24T09:29:30.461Z,37.59
2019-02-24T09:32:18.699Z,38.74
2019-02-24T09:35:07.353Z,39.24
2019-02-24T09:37:55.354Z,39.39
2019-02-24T09:40:43.767Z,38.53
2019-02-24T09:43:31.820Z,38.50
2019-02-24T09:46:20.131Z,39.15
2019-02-24T09:49:08.071Z,38.73
2019-02-24T09:51:56.563Z,38.45
2019-02-24T09:54:44.359Z,38.30
2019-02-24T09:57:32.203Z,39.22
2019-02-24T10:00:21.926Z,38.47
2019-02-24T10:03:09.742Z,38.35
2019-02-24T10:05:57.665Z,37.93
2019-02-24T10:08:45.649Z,37.53
2019-02-24T10:11:33.677Z,37.59
2019-02-24T10:14:22.256Z,37.60
2019-02-24T10:17:10.180Z,38.01
2019-02-24T10:19:58.040Z,37.04
2019-02-24T10:22:46.298Z,37.03
2019-02-24T10:25:38.019Z,37.10
2019-02-24T10:28:25.778Z,36.93
2019-02-24T10:31:19.786Z,36.92
2019-02-24T10:34:03.375Z,37.21
2019-02-24T10:36:51.163Z,36.97
2019-02-24T10:39:39.156Z,37.02
2019-02-24T10:42:27.101Z,36.72
2019-02-24T10:45:15.194Z,37.34
2019-02-24T10:48:03.195Z,37.07
2019-02-24T10:50:51.348Z,37.67
2019-02-24T10:53:39.461Z,36.15
2019-02-24T10:56:27.286Z,36.72
2019-02-24T10:59:17.019Z,37.02
2019-02-24T11:02:04.677Z,36.99
2019-02-24T11:04:53.062Z,37.00
2019-02-24T11:07:40.699Z,36.99
2019-02-24T11:10:28.662Z,36.23
2019-02-24T11:13:16.768Z,35.99
2019-02-24T11:16:05.054Z,36.07
2019-02-24T11:18:52.959Z,36.42
2019-02-24T11:21:40.870Z,35.96
2019-02-24T11:24:28.867Z,36.28
2019-02-24T11:27:16.594Z,35.98
2019-02-24T11:30:04.215Z,35.85
2019-02-24T11:32:52.157Z,35.45
2019-02-24T11:35:39.948Z,35.90
2019-02-24T11:38:27.853Z,35.31
2019-02-24T11:41:15.909Z,35.14
2019-02-24T11:44:04.112Z,35.02
2019-02-24T11:46:51.995Z,35.11
2019-02-24T11:49:39.609Z,34.82
2019-02-24T11:52:27.824Z,34.24
2019-02-24T11:55:15.727Z,34.90
2019-02-24T11:58:03.590Z,34.79
2019-02-24T12:00:51.838Z,34.61
2019-02-24T12:03:39.905Z,34.51
2019-02-24T12:06:28.034Z,34.15
2019-02-24T12:09:17.372Z,34.27
2019-02-24T12:12:05.664Z,34.51
2019-02-24T12:14:53.757Z,34.25
2019-02-24T12:17:41.967Z,34.26
2019-02-24T12:20:29.754Z,34.63
2019-02-24T12:23:17.394Z,34.60
2019-02-24T12:26:06.510Z,34.28
2019-02-24T12:28:54.512Z,34.32
2019-02-24T12:31:42.300Z,34.26
2019-02-24T12:34:30.429Z,34.07
2019-02-24T12:37:18.365Z,34.23
2019-02-24T12:40:07.199Z,34.01
2019-02-24T12:42:55.364Z,33.76
2019-02-24T12:45:43.571Z,34.10
2019-02-24T12:48:31.524Z,34.58
2019-02-24T12:51:19.401Z,34.56
2019-02-24T12:54:07.278Z,34.31
2019-02-24T12:56:55.054Z,34.06
2019-02-24T12:59:43.030Z,33.50
2019-02-24T13:02:31.477Z,33.61
2019-02-24T13:05:19.629Z,33.71
2019-02-24T13:08:07.812Z,34.34
2019-02-24T13:18:47.828Z,33.66
2019-02-24T13:21:36.608Z,33.98
2019-02-24T13:24:25.223Z,34.22
2019-02-24T13:27:12.837Z,34.16
2019-02-24T13:30:01.012Z,33.65
2019-02-24T13:33:57.633Z,33.69
2019-02-24T13:45:32.292Z,33.84
2019-02-24T13:48:47.240Z,33.32
2019-02-24T13:52:17.689Z,33.44
2019-02-24T13:55:59.512Z,33.44
2019-02-24T13:58:49.704Z,33.59
2019-02-24T14:01:38.736Z,33.25
2019-02-24T14:04:26.859Z,33.34
2019-02-24T14:07:14.891Z,32.90
2019-02-24T14:10:03.076Z,33.35
2019-02-24T14:12:51.495Z,32.40
2019-02-24T14:15:39.286Z,32.90
2019-02-24T14:18:27.469Z,33.09
2019-02-24T14:21:15.343Z,32.82
2019-02-24T14:24:03.477Z,32.84
2019-02-24T14:26:51.648Z,32.61
2019-02-24T14:29:39.736Z,33.03
2019-02-24T14:32:33.100Z,32.74
2019-02-24T14:35:16.921Z,32.42
2019-02-24T14:38:04.774Z,32.20
2019-02-24T14:40:52.952Z,31.41
2019-02-24T14:43:41.247Z,32.08
2019-02-24T14:46:29.773Z,32.33
2019-02-24T14:49:17.826Z,32.53
2019-02-24T14:52:05.748Z,32.92
2019-02-24T14:54:53.808Z,33.03
2019-02-24T14:57:41.843Z,32.77
2019-02-24T15:00:29.859Z,33.15
2019-02-24T15:03:18.212Z,33.08
2019-02-24T15:06:06.477Z,33.19
2019-02-24T15:08:54.594Z,33.23
2019-02-24T15:11:42.770Z,32.95
2019-02-24T15:14:30.822Z,33.22
2019-02-24T15:17:18.969Z,32.77
2019-02-24T15:20:08.010Z,33.05
2019-02-24T15:22:56.211Z,33.57
2019-02-24T15:25:43.865Z,33.49
2019-02-24T15:28:31.842Z,33.04
2019-02-24T15:31:20.066Z,33.26
2019-02-24T15:34:08.059Z,33.63
2019-02-24T15:36:56.002Z,33.25
2019-02-24T15:39:43.654Z,32.66
2019-02-24T15:42:31.962Z,32.89
2019-02-24T15:45:42.224Z,31.88
2019-02-24T15:58:46.060Z,29.92
2019-02-24T16:01:34.073Z,29.58
2019-02-24T16:04:22.214Z,29.69
2019-02-24T16:07:10.600Z,29.35
2019-02-24T16:09:58.757Z,32.38
2019-02-24T16:12:47.052Z,33.53
2019-02-24T16:15:34.998Z,34.93
2019-02-24T16:18:24.063Z,35.37
2019-02-24T16:21:11.988Z,35.75
2019-02-24T16:23:59.765Z,35.22
2019-02-24T16:26:47.757Z,34.67
2019-02-24T16:29:36.007Z,34.14
2019-02-24T16:32:24.189Z,34.95
2019-02-24T16:35:13.255Z,33.67
2019-02-24T16:38:01.040Z,33.40
2019-02-24T16:40:49.217Z,33.18
2019-02-24T16:43:37.391Z,33.84
2019-02-24T16:46:25.257Z,33.10
2019-02-24T16:49:13.267Z,32.52
2019-02-24T16:52:01.095Z,33.07
2019-02-24T16:54:52.705Z,32.74
2019-02-24T16:57:38.357Z,32.55
2019-02-24T17:00:26.477Z,32.48
2019-02-24T17:03:19.826Z,32.94
2019-02-24T17:06:03.941Z,32.85
2019-02-24T17:09:01.274Z,33.13
2019-02-24T17:11:41.763Z,32.93
2019-02-24T17:14:29.911Z,33.73
2019-02-24T17:17:17.769Z,34.40
2019-02-24T17:20:06.940Z,33.80
2019-02-24T17:22:54.624Z,33.98
2019-02-24T17:25:42.245Z,33.33
2019-02-24T17:28:30.118Z,33.71
2019-02-24T17:31:18.520Z,33.59
2019-02-24T17:34:06.271Z,34.09
2019-02-24T17:36:54.071Z,34.54
2019-02-24T17:39:41.977Z,34.58
2019-02-24T17:42:30.012Z,33.79
2019-02-24T17:45:18.090Z,33.92
2019-02-24T17:48:06.056Z,33.53
2019-02-24T17:50:53.945Z,34.01
2019-02-24T17:53:42.814Z,33.88
2019-02-24T17:56:31.178Z,34.04
2019-02-24T17:59:19.205Z,34.31
2019-02-24T18:02:07.366Z,33.97
2019-02-24T18:04:55.585Z,34.01
2019-02-24T18:07:43.715Z,34.20
2019-02-24T18:10:31.548Z,34.13
2019-02-24T18:13:19.191Z,34.28
2019-02-24T18:16:07.307Z,34.42
2019-02-24T18:18:55.574Z,34.26
2019-02-24T18:21:43.546Z,34.26
2019-02-24T18:24:31.452Z,34.57
2019-02-24T18:27:19.101Z,33.81
2019-02-24T18:30:12.771Z,33.79
2019-02-24T18:33:00.646Z,34.29
2019-02-24T18:35:48.931Z,35.21
2019-02-24T18:38:36.837Z,35.41
2019-02-24T18:41:24.758Z,35.48
2019-02-24T18:44:13.024Z,35.81
2019-02-24T18:47:00.762Z,35.97
2019-02-24T18:49:48.885Z,35.32
2019-02-24T18:52:36.961Z,35.51
2019-02-24T18:55:24.596Z,35.79
2019-02-24T18:58:12.410Z,35.70
2019-02-24T19:01:00.209Z,35.73
2019-02-24T19:03:57.180Z,35.73
2019-02-24T19:06:39.401Z,34.45
2019-02-24T19:09:27.642Z,34.95
2019-02-24T19:12:15.518Z,35.27
2019-02-24T19:15:03.619Z,34.78
2019-02-24T19:17:51.403Z,35.11
2019-02-24T19:20:39.546Z,34.48
2019-02-24T19:23:27.379Z,33.85
2019-02-24T19:26:15.660Z,34.50
2019-02-24T19:29:03.889Z,34.63
2019-02-24T19:31:52.130Z,34.14
2019-02-24T19:34:40.252Z,34.05
2019-02-24T19:37:28.222Z,34.21
2019-02-24T19:40:17.132Z,33.58
2019-02-24T19:43:05.313Z,34.01
2019-02-24T19:45:52.926Z,34.38
2019-02-24T19:48:42.173Z,34.52
2019-02-24T19:51:30.457Z,34.77
2019-02-24T19:54:18.390Z,34.32
2019-02-24T19:57:06.502Z,33.76
2019-02-24T19:59:54.693Z,33.90
2019-02-24T20:02:43.035Z,34.33
2019-02-24T20:05:30.825Z,34.23
2019-02-24T20:08:18.915Z,34.27
2019-02-24T20:11:06.692Z,34.42
2019-02-24T20:13:54.617Z,34.41
2019-02-24T20:16:42.803Z,34.63
2019-02-24T20:19:30.977Z,34.81
2019-02-24T20:22:19.115Z,35.41
2019-02-24T20:25:07.825Z,34.83
2019-02-24T20:27:55.751Z,34.82
2019-02-24T20:30:43.745Z,36.27
2019-02-24T20:33:31.595Z,36.80
2019-02-24T20:36:19.173Z,37.15
2019-02-24T20:39:07.787Z,37.45
2019-02-24T20:41:55.639Z,36.97
2019-02-24T20:44:43.827Z,37.09
2019-02-24T20:47:31.655Z,36.97
2019-02-24T20:50:20.009Z,37.76
2019-02-24T20:53:07.621Z,38.28
2019-02-24T20:55:55.862Z,37.65
2019-02-24T20:58:43.657Z,37.71
2019-02-24T21:01:31.630Z,36.09
2019-02-24T21:04:19.849Z,36.60
2019-02-24T21:07:07.800Z,37.39
2019-02-24T21:09:56.067Z,36.56
2019-02-24T21:12:44.392Z,36.86
2019-02-24T21:15:32.544Z,36.55
2019-02-24T21:18:20.476Z,37.45
2019-02-24T21:21:08.614Z,36.81
2019-02-24T21:23:56.538Z,37.52
2019-02-24T21:26:44.697Z,37.60
2019-02-24T21:29:32.822Z,37.51
2019-02-24T21:32:20.633Z,37.75
2019-02-24T21:35:09.016Z,38.65
2019-02-24T21:37:57.048Z,38.47
2019-02-24T21:40:45.493Z,38.42
2019-02-24T21:43:33.355Z,38.94
2019-02-24T21:46:21.337Z,38.92
2019-02-24T21:49:09.505Z,39.11
2019-02-24T21:51:57.703Z,38.84
2019-02-24T21:54:45.276Z,39.01
2019-02-24T21:57:33.552Z,39.61
2019-02-24T22:00:22.273Z,39.30
2019-02-24T22:03:10.355Z,38.26
2019-02-24T22:05:58.084Z,38.28
2019-02-24T22:08:46.125Z,38.57
2019-02-24T22:11:34.211Z,38.05
2019-02-24T22:14:22.501Z,38.40
2019-02-24T22:17:10.091Z,38.17
2019-02-24T22:19:57.936Z,38.49
2019-02-24T22:22:45.622Z,37.42
2019-02-24T22:25:33.895Z,38.56
2019-02-24T22:28:21.701Z,38.27
2019-02-24T22:31:09.648Z,38.48
2019-02-24T22:33:57.544Z,38.50
2019-02-24T22:36:45.706Z,39.21
2019-02-24T22:39:33.281Z,39.37
2019-02-24T22:42:21.057Z,39.99
2019-02-24T22:45:11.214Z,40.43
2019-02-24T22:47:59.199Z,40.25
2019-02-24T22:50:47.007Z,40.56
2019-02-24T22:53:34.594Z,39.55
2019-02-24T22:56:22.775Z,39.65
2019-02-24T22:59:10.471Z,39.56
2019-02-24T23:01:58.548Z,39.58
2019-02-24T23:04:46.559Z,39.97
2019-02-24T23:07:34.453Z,39.73
2019-02-24T23:10:22.108Z,39.19
2019-02-24T23:13:10.462Z,40.02
2019-02-24T23:15:58.241Z,40.02
2019-02-24T23:18:46.278Z,40.11
2019-02-24T23:21:34.142Z,40.05
2019-02-24T23:24:24.059Z,39.77
2019-02-24T23:27:11.555Z,39.60
2019-02-24T23:29:59.797Z,39.66
2019-02-24T23:32:47.706Z,39.84
2019-02-24T23:35:35.816Z,40.00
2019-02-24T23:38:23.578Z,40.14
2019-02-24T23:41:11.222Z,40.06
2019-02-24T23:43:59.014Z,40.47
2019-02-24T23:46:47.652Z,40.18
2019-02-24T23:49:35.519Z,40.76
2019-02-24T23:52:23.102Z,41.16
2019-02-24T23:55:11.350Z,41.16
2019-02-24T23:57:59.594Z,40.51
